Time;durP1;ratioP1;P1;durP2;ratioP2;P2;SDS_P1;SDS_P2;PMS_P1;PMS_P2;Temp;Humidity;BMP_temperature;BMP_pressure;BME280_temperature;BME280_humidity;BME280_pressure;Samples;Min_cycle;Max_cycle;Signal;HPM_P1;HPM_P2
2023/12/19 00:00:12;;;;;;;24.38;4.60;;;12.40;99.90;;;;;;5056790;28;20544;-61
2023/12/19 00:02:39;;;;;;;22.02;4.60;;;12.40;99.90;;;;;;5057171;28;20097;-60
2023/12/19 00:05:07;;;;;;;22.10;4.22;;;12.40;99.90;;;;;;5056042;28;20056;-61
2023/12/19 00:07:33;;;;;;;26.13;4.82;;;12.40;99.90;;;;;;5055455;28;20064;-60
2023/12/19 00:10:00;;;;;;;16.27;4.13;;;12.40;99.90;;;;;;5056293;28;20494;-61
2023/12/19 00:12:27;;;;;;;22.88;4.45;;;12.40;99.90;;;;;;5056943;28;20048;-62
2023/12/19 00:14:54;;;;;;;27.65;5.18;;;12.40;99.90;;;;;;5056190;28;20090;-61
2023/12/19 00:17:21;;;;;;;28.85;5.32;;;12.40;99.90;;;;;;5056644;28;20043;-61
2023/12/19 00:19:47;;;;;;;24.35;4.22;;;12.40;99.90;;;;;;5056487;28;20045;-60
2023/12/19 00:22:14;;;;;;;24.95;4.55;;;12.40;99.90;;;;;;5056813;28;20381;-61
2023/12/19 00:24:41;;;;;;;28.20;5.07;;;12.40;99.90;;;;;;5056198;28;20041;-60
2023/12/19 00:27:08;;;;;;;27.10;5.35;;;12.40;99.90;;;;;;5056558;28;20072;-59
2023/12/19 00:29:35;;;;;;;24.00;5.28;;;12.40;99.90;;;;;;5056237;28;20048;-61
2023/12/19 00:32:01;;;;;;;28.60;5.05;;;12.40;99.90;;;;;;5056098;28;20066;-61
2023/12/19 00:34:28;;;;;;;26.77;4.70;;;12.40;99.90;;;;;;5056577;28;20075;-60
2023/12/19 00:36:55;;;;;;;25.30;5.00;;;12.40;99.90;;;;;;5056095;28;20106;-61
2023/12/19 00:39:22;;;;;;;22.58;4.18;;;12.40;99.90;;;;;;5055696;28;20164;-61
2023/12/19 00:41:49;;;;;;;28.95;4.72;;;12.40;99.90;;;;;;5055829;28;20045;-61
2023/12/19 00:44:16;;;;;;;26.05;4.60;;;12.40;99.90;;;;;;5056109;28;20203;-61
2023/12/19 00:46:43;;;;;;;32.65;4.95;;;12.40;99.90;;;;;;5056064;28;20099;-61
2023/12/19 00:49:10;;;;;;;28.02;4.65;;;12.40;99.90;;;;;;5055759;28;20047;-60
2023/12/19 00:51:37;;;;;;;34.83;6.38;;;12.40;99.90;;;;;;5054332;28;20048;-61
2023/12/19 00:54:03;;;;;;;27.48;5.10;;;12.40;99.90;;;;;;5054763;28;20086;-61
2023/12/19 00:56:32;;;;;;;31.25;4.90;;;12.40;99.90;;;;;;5055600;28;20045;-61
2023/12/19 00:58:59;;;;;;;27.30;5.38;;;12.40;99.90;;;;;;5054924;28;20079;-60
2023/12/19 01:01:26;;;;;;;29.73;5.55;;;12.50;99.90;;;;;;5055815;28;20052;-61
2023/12/19 01:03:53;;;;;;;26.55;4.68;;;12.40;99.90;;;;;;5055848;28;20056;-60
2023/12/19 01:06:20;;;;;;;18.65;4.05;;;12.40;99.90;;;;;;5055602;28;20037;-60
2023/12/19 01:08:47;;;;;;;31.80;5.15;;;12.40;99.90;;;;;;5055231;28;20061;-61
2023/12/19 01:11:14;;;;;;;27.10;4.68;;;12.40;99.90;;;;;;5054631;28;20045;-61
2023/12/19 01:13:41;;;;;;;29.75;5.00;;;12.40;99.90;;;;;;5055118;28;20182;-60
2023/12/19 01:16:08;;;;;;;24.42;4.80;;;12.50;99.90;;;;;;5055554;28;20045;-61
2023/12/19 01:18:35;;;;;;;23.98;4.82;;;12.40;99.90;;;;;;5055295;28;20033;-61
2023/12/19 01:21:01;;;;;;;24.70;4.90;;;12.40;99.90;;;;;;5055675;28;20047;-61
2023/12/19 01:23:28;;;;;;;23.60;5.18;;;12.50;99.90;;;;;;5055171;28;20159;-61
2023/12/19 01:25:55;;;;;;;24.67;5.28;;;12.40;99.90;;;;;;5055076;28;20091;-61
2023/12/19 01:28:22;;;;;;;26.33;5.45;;;12.40;99.90;;;;;;5055255;28;20098;-60
2023/12/19 01:30:49;;;;;;;25.75;4.97;;;12.40;99.90;;;;;;5055312;28;20470;-61
2023/12/19 01:33:16;;;;;;;27.33;5.05;;;12.40;99.90;;;;;;5054874;28;20040;-61
2023/12/19 01:35:43;;;;;;;25.15;5.63;;;12.40;99.90;;;;;;5054683;28;20047;-61
2023/12/19 01:38:10;;;;;;;27.55;4.78;;;12.40;99.90;;;;;;5055119;28;20041;-61
2023/12/19 01:40:37;;;;;;;27.00;5.00;;;12.40;99.90;;;;;;5054580;28;20040;-60
2023/12/19 01:43:03;;;;;;;25.42;4.82;;;12.40;99.90;;;;;;5054788;28;20109;-60
2023/12/19 01:45:30;;;;;;;21.58;4.63;;;12.40;99.90;;;;;;5054967;28;20482;-60
2023/12/19 01:47:57;;;;;;;21.60;5.40;;;12.40;99.90;;;;;;5054994;28;20124;-61
2023/12/19 01:50:24;;;;;;;22.52;4.95;;;12.40;99.90;;;;;;5052870;28;20363;-60
2023/12/19 01:52:51;;;;;;;30.60;4.50;;;12.40;99.90;;;;;;5053320;28;20140;-60
2023/12/19 01:55:17;;;;;;;27.02;5.00;;;12.40;99.90;;;;;;5054734;28;20041;-60
2023/12/19 01:57:44;;;;;;;27.00;5.00;;;12.40;99.90;;;;;;5054537;28;20084;-61
2023/12/19 02:00:13;;;;;;;25.45;4.93;;;12.40;99.90;;;;;;5054643;28;20111;-60
2023/12/19 02:02:40;;;;;;;24.52;4.90;;;12.40;99.90;;;;;;5054585;28;20069;-60
2023/12/19 02:05:10;;;;;;;25.50;4.53;;;12.40;99.90;;;;;;5054229;28;20045;-60
2023/12/19 02:07:37;;;;;;;21.50;4.78;;;12.40;99.90;;;;;;5054277;28;20056;-60
2023/12/19 02:10:03;;;;;;;24.02;4.25;;;12.40;99.90;;;;;;5053332;28;20045;-60
2023/12/19 02:12:30;;;;;;;19.85;4.15;;;12.40;99.90;;;;;;5054337;28;20459;-60
2023/12/19 02:14:57;;;;;;;24.55;4.90;;;12.40;99.90;;;;;;5054016;28;20040;-61
2023/12/19 02:17:24;;;;;;;23.73;4.50;;;12.40;99.90;;;;;;5054200;28;20441;-61
2023/12/19 02:19:51;;;;;;;23.42;5.20;;;12.40;99.90;;;;;;5054536;28;20116;-61
2023/12/19 02:22:18;;;;;;;23.02;5.18;;;12.40;99.90;;;;;;5054071;28;20098;-61
2023/12/19 02:24:45;;;;;;;23.15;4.07;;;12.40;99.90;;;;;;5053718;28;20048;-61
2023/12/19 02:27:12;;;;;;;25.60;4.68;;;12.40;99.90;;;;;;5054236;28;20049;-61
2023/12/19 02:29:39;;;;;;;21.83;4.55;;;12.50;99.90;;;;;;5053835;28;20087;-61
2023/12/19 02:32:06;;;;;;;23.08;4.53;;;12.50;99.90;;;;;;5053857;28;20087;-61
2023/12/19 02:34:33;;;;;;;19.00;4.90;;;12.50;99.90;;;;;;5054111;28;20041;-61
2023/12/19 02:37:00;;;;;;;17.20;4.20;;;12.50;99.90;;;;;;5053716;28;20167;-61
2023/12/19 02:39:27;;;;;;;23.52;5.10;;;12.50;99.90;;;;;;5053785;28;20497;-61
2023/12/19 02:41:54;;;;;;;27.88;5.38;;;12.40;99.90;;;;;;5052288;28;20049;-61
2023/12/19 02:44:21;;;;;;;17.92;5.20;;;12.40;99.90;;;;;;5053739;28;20055;-61
2023/12/19 02:46:48;;;;;;;23.10;4.70;;;12.30;99.90;;;;;;5052792;28;20419;-61
2023/12/19 02:49:15;;;;;;;21.48;4.20;;;12.30;99.90;;;;;;5053959;28;20386;-61
2023/12/19 02:51:42;;;;;;;18.88;4.13;;;12.30;99.90;;;;;;5053832;28;20071;-61
2023/12/19 02:54:08;;;;;;;15.50;3.65;;;12.20;99.90;;;;;;5053755;28;20045;-61
2023/12/19 02:56:35;;;;;;;13.70;3.90;;;12.20;99.90;;;;;;5053072;28;20037;-62
2023/12/19 02:59:02;;;;;;;15.20;4.47;;;12.20;99.90;;;;;;5053210;28;20044;-62
2023/12/19 03:01:29;;;;;;;11.65;3.45;;;12.20;99.90;;;;;;5053054;28;20067;-62
2023/12/19 03:03:56;;;;;;;18.95;4.57;;;12.20;99.90;;;;;;5051990;28;20131;-62
2023/12/19 03:06:23;;;;;;;15.70;4.75;;;12.20;99.90;;;;;;5053354;28;20040;-62
2023/12/19 03:08:51;;;;;;;19.45;4.35;;;12.20;99.90;;;;;;5053535;28;20099;-62
2023/12/19 03:11:18;;;;;;;18.45;4.88;;;12.20;99.90;;;;;;5053421;28;20052;-62
2023/12/19 03:13:45;;;;;;;15.20;4.13;;;12.10;99.90;;;;;;5053428;28;20072;-62
2023/12/19 03:16:12;;;;;;;21.10;5.00;;;12.20;99.90;;;;;;5053346;28;20481;-63
2023/12/19 03:18:39;;;;;;;16.92;4.60;;;12.20;99.90;;;;;;5052163;28;20037;-62
2023/12/19 03:21:08;;;;;;;19.35;4.45;;;12.10;99.90;;;;;;5053239;28;20124;-62
2023/12/19 03:23:35;;;;;;;18.90;4.70;;;12.10;99.90;;;;;;5051778;28;20601;-62
2023/12/19 03:26:02;;;;;;;13.80;4.07;;;12.10;99.90;;;;;;5052715;28;20405;-62
2023/12/19 03:28:29;;;;;;;12.25;3.42;;;12.10;99.90;;;;;;5051913;28;20037;-62
2023/12/19 03:30:55;;;;;;;18.17;4.07;;;12.10;99.90;;;;;;5052787;28;20045;-62
2023/12/19 03:33:22;;;;;;;12.15;4.10;;;12.10;99.90;;;;;;5052718;28;20041;-63
2023/12/19 03:35:50;;;;;;;11.27;3.10;;;12.10;99.90;;;;;;5052948;28;20045;-62
2023/12/19 03:38:17;;;;;;;9.30;3.15;;;12.10;99.90;;;;;;5051869;28;20056;-62
2023/12/19 03:40:44;;;;;;;9.13;2.97;;;12.10;99.90;;;;;;5052544;28;20041;-62
2023/12/19 03:43:10;;;;;;;9.88;2.47;;;12.10;99.90;;;;;;5053460;28;20048;-62
2023/12/19 03:45:37;;;;;;;7.30;1.70;;;12.10;99.90;;;;;;5052433;28;20075;-62
2023/12/19 03:48:04;;;;;;;8.13;1.77;;;12.10;99.90;;;;;;5053134;28;20055;-62
2023/12/19 03:50:31;;;;;;;9.38;2.20;;;12.10;99.90;;;;;;5052435;28;20037;-62
2023/12/19 03:52:58;;;;;;;5.97;1.50;;;12.10;99.90;;;;;;5053153;28;20497;-63
2023/12/19 03:55:25;;;;;;;6.65;1.40;;;12.10;99.90;;;;;;5051427;28;20057;-62
2023/12/19 03:57:51;;;;;;;4.55;1.05;;;12.10;99.90;;;;;;5051428;28;20045;-62
2023/12/19 04:00:18;;;;;;;3.95;1.08;;;12.10;99.90;;;;;;5052357;28;20044;-62
2023/12/19 04:02:45;;;;;;;8.05;1.45;;;12.10;99.90;;;;;;5052994;28;20049;-62
2023/12/19 04:05:12;;;;;;;7.47;1.40;;;12.10;99.90;;;;;;5052638;28;20045;-62
2023/12/19 04:07:40;;;;;;;6.20;1.52;;;12.10;99.90;;;;;;5052743;28;20051;-62
2023/12/19 04:10:07;;;;;;;4.03;1.40;;;12.20;99.90;;;;;;5052254;28;20132;-62
2023/12/19 04:12:33;;;;;;;4.35;1.30;;;12.20;99.90;;;;;;5052267;28;20478;-61
2023/12/19 04:15:00;;;;;;;7.57;1.40;;;12.20;99.90;;;;;;5052325;28;20486;-62
2023/12/19 04:17:27;;;;;;;5.80;1.60;;;12.20;99.90;;;;;;5052657;28;20056;-61
2023/12/19 04:19:54;;;;;;;5.13;1.50;;;12.20;99.90;;;;;;5052471;28;20061;-62
2023/12/19 04:22:21;;;;;;;4.95;1.70;;;12.20;99.90;;;;;;5050809;28;20037;-62
2023/12/19 04:24:48;;;;;;;7.35;1.95;;;12.20;99.90;;;;;;5051186;28;20041;-62
2023/12/19 04:27:15;;;;;;;6.97;2.00;;;12.20;99.90;;;;;;5052531;28;20045;-61
2023/12/19 04:29:45;;;;;;;5.97;2.35;;;12.20;99.90;;;;;;5052652;28;20075;-62
2023/12/19 04:32:12;;;;;;;6.07;2.22;;;12.20;99.90;;;;;;5052475;28;20071;-61
2023/12/19 04:34:39;;;;;;;5.72;2.15;;;12.20;99.90;;;;;;5053504;28;20037;-62
2023/12/19 04:37:06;;;;;;;6.88;2.10;;;12.20;99.90;;;;;;5054438;28;20055;-62
2023/12/19 04:39:32;;;;;;;6.55;2.35;;;12.30;99.90;;;;;;5055796;28;20062;-61
2023/12/19 04:41:59;;;;;;;8.18;2.17;;;12.20;99.90;;;;;;5055995;28;20136;-62
2023/12/19 04:44:26;;;;;;;5.53;1.63;;;12.30;99.90;;;;;;5056304;28;20067;-62
2023/12/19 04:46:53;;;;;;;9.75;2.15;;;12.30;99.90;;;;;;5056060;28;20045;-62
2023/12/19 04:49:20;;;;;;;4.93;1.70;;;12.30;99.90;;;;;;5056096;28;20049;-61
2023/12/19 04:51:47;;;;;;;5.00;1.70;;;12.30;99.90;;;;;;5056144;28;20052;-62
2023/12/19 04:54:13;;;;;;;4.20;1.50;;;12.30;99.90;;;;;;5055869;28;20115;-61
2023/12/19 04:56:40;;;;;;;7.07;1.55;;;12.30;99.90;;;;;;5055724;28;20037;-62
2023/12/19 04:59:07;;;;;;;5.18;1.23;;;12.30;99.90;;;;;;5055727;28;20099;-61
2023/12/19 05:01:36;;;;;;;6.43;1.35;;;12.30;99.90;;;;;;5055429;28;20044;-61
2023/12/19 05:04:02;;;;;;;3.83;1.40;;;12.40;99.90;;;;;;5055483;28;20040;-61
2023/12/19 05:06:29;;;;;;;5.55;1.40;;;12.30;99.90;;;;;;5055446;28;20103;-61
2023/12/19 05:08:56;;;;;;;4.25;1.17;;;12.30;99.90;;;;;;5055654;28;20037;-62
2023/12/19 05:11:23;;;;;;;5.80;1.10;;;12.30;99.90;;;;;;5055230;28;20060;-61
2023/12/19 05:13:49;;;;;;;6.85;1.25;;;12.40;99.90;;;;;;5055604;28;20037;-61
2023/12/19 05:16:16;;;;;;;3.95;1.13;;;12.40;99.90;;;;;;5055655;28;20045;-62
2023/12/19 05:18:43;;;;;;;4.13;1.20;;;12.40;99.90;;;;;;5055552;28;20041;-62
2023/12/19 05:21:10;;;;;;;5.72;1.20;;;12.40;99.90;;;;;;5055333;28;20044;-62
2023/12/19 05:23:37;;;;;;;3.28;0.90;;;12.40;99.90;;;;;;5055390;28;20049;-61
2023/12/19 05:26:04;;;;;;;3.13;0.93;;;12.40;99.90;;;;;;5054976;28;20068;-61
2023/12/19 05:28:31;;;;;;;3.58;1.15;;;12.40;99.90;;;;;;5053864;28;20037;-62
2023/12/19 05:30:57;;;;;;;2.28;0.80;;;12.40;99.90;;;;;;5055436;28;20136;-63
2023/12/19 05:33:24;;;;;;;3.25;0.80;;;12.40;99.90;;;;;;5054934;28;20075;-62
2023/12/19 05:35:51;;;;;;;3.75;0.80;;;12.40;99.90;;;;;;5054736;28;20033;-63
2023/12/19 05:38:18;;;;;;;3.58;0.90;;;12.40;99.90;;;;;;5054782;28;20041;-63
2023/12/19 05:40:45;;;;;;;4.10;1.00;;;12.40;99.90;;;;;;5053692;28;20502;-63
2023/12/19 05:43:11;;;;;;;2.85;1.15;;;12.40;99.90;;;;;;5055335;28;20048;-63
2023/12/19 05:45:38;;;;;;;6.50;1.30;;;12.30;99.90;;;;;;5054796;28;20045;-63
2023/12/19 05:48:05;;;;;;;9.25;1.50;;;12.30;99.90;;;;;;5055151;28;20063;-63
2023/12/19 05:50:32;;;;;;;3.35;1.30;;;12.30;99.90;;;;;;5055142;28;20124;-63
2023/12/19 05:52:59;;;;;;;5.22;1.42;;;12.30;99.90;;;;;;5054998;28;20052;-63
2023/12/19 05:55:26;;;;;;;4.07;1.48;;;12.30;99.90;;;;;;5054972;28;20041;-64
2023/12/19 05:57:52;;;;;;;3.88;1.45;;;12.30;99.90;;;;;;5055107;28;20069;-63
2023/12/19 06:00:19;;;;;;;5.05;2.10;;;12.30;99.90;;;;;;5055163;28;20045;-63
2023/12/19 06:02:46;;;;;;;4.30;2.30;;;12.40;99.90;;;;;;5054742;28;20037;-62
2023/12/19 06:05:13;;;;;;;4.90;2.00;;;12.30;99.90;;;;;;5054715;28;20037;-63
2023/12/19 06:07:40;;;;;;;6.18;2.10;;;12.30;99.90;;;;;;5054439;28;20045;-63
2023/12/19 06:10:06;;;;;;;7.57;2.03;;;12.40;99.90;;;;;;5054324;28;20037;-64
2023/12/19 06:12:34;;;;;;;4.78;1.80;;;12.30;99.90;;;;;;5054876;28;20037;-63
2023/12/19 06:15:00;;;;;;;6.18;2.75;;;12.30;99.90;;;;;;5053771;28;20043;-63
2023/12/19 06:17:27;;;;;;;6.40;2.10;;;12.30;99.90;;;;;;5054134;28;20056;-63
2023/12/19 06:19:55;;;;;;;4.00;1.70;;;12.30;99.90;;;;;;5054433;28;20123;-63
2023/12/19 06:22:21;;;;;;;3.17;1.75;;;12.20;99.90;;;;;;5054437;28;20036;-62
2023/12/19 06:24:50;;;;;;;4.85;1.30;;;12.30;99.90;;;;;;5054152;28;20079;-63
2023/12/19 06:27:17;;;;;;;8.35;2.15;;;12.20;99.90;;;;;;5053321;28;20425;-63
2023/12/19 06:29:43;;;;;;;4.43;1.23;;;12.20;99.90;;;;;;5054368;28;20136;-63
2023/12/19 06:32:10;;;;;;;3.67;1.15;;;12.20;99.90;;;;;;5054125;28;20045;-63
2023/12/19 06:34:37;;;;;;;5.30;1.20;;;12.20;99.90;;;;;;5054587;28;20071;-63
2023/12/19 06:37:04;;;;;;;1.73;0.80;;;12.20;99.90;;;;;;5054287;28;20051;-63
2023/12/19 06:39:31;;;;;;;3.38;1.13;;;12.20;99.90;;;;;;5054220;28;20044;-63
2023/12/19 06:41:58;;;;;;;6.20;1.00;;;12.20;99.90;;;;;;5054409;28;20044;-63
2023/12/19 06:44:26;;;;;;;2.92;0.77;;;12.10;99.90;;;;;;5054320;28;20111;-63
2023/12/19 06:46:53;;;;;;;2.28;0.68;;;12.10;99.90;;;;;;5052493;28;20136;-63
2023/12/19 06:49:19;;;;;;;2.03;0.68;;;12.20;99.90;;;;;;5053399;28;20052;-63
2023/12/19 06:51:46;;;;;;;3.08;0.73;;;12.20;99.90;;;;;;5053799;28;20045;-64
2023/12/19 06:54:13;;;;;;;3.90;0.60;;;12.10;99.90;;;;;;5053664;28;20037;-64
2023/12/19 06:56:40;;;;;;;1.80;0.50;;;12.10;99.90;;;;;;5053505;28;20039;-64
2023/12/19 06:59:07;;;;;;;1.77;0.55;;;12.20;99.90;;;;;;5053963;28;20044;-63
2023/12/19 07:01:33;;;;;;;5.10;0.70;;;12.20;99.90;;;;;;5053611;28;20037;-63
2023/12/19 07:04:00;;;;;;;2.30;0.40;;;12.20;99.90;;;;;;5053409;28;20037;-63
2023/12/19 07:06:27;;;;;;;0.95;0.47;;;12.20;99.90;;;;;;5053816;28;20223;-63
2023/12/19 07:08:55;;;;;;;1.15;0.50;;;12.20;99.90;;;;;;5053221;28;20041;-62
2023/12/19 07:11:22;;;;;;;1.15;0.50;;;12.20;99.90;;;;;;5053293;28;20490;-63
2023/12/19 07:13:49;;;;;;;2.42;0.50;;;12.20;99.90;;;;;;5053780;28;20060;-62
2023/12/19 07:16:18;;;;;;;1.58;0.52;;;12.20;99.90;;;;;;5053451;28;20045;-62
2023/12/19 07:18:45;;;;;;;2.28;0.60;;;12.20;99.90;;;;;;5053507;28;20037;-62
2023/12/19 07:21:16;;;;;;;2.38;0.50;;;12.20;99.90;;;;;;5053203;28;20045;-62
2023/12/19 07:23:43;;;;;;;1.45;0.50;;;12.30;99.90;;;;;;5053574;28;20033;-62
2023/12/19 07:26:09;;;;;;;1.02;0.40;;;12.20;99.90;;;;;;5052919;28;20111;-61
2023/12/19 07:28:36;;;;;;;1.70;0.40;;;12.30;99.90;;;;;;5053086;28;20041;-62
2023/12/19 07:31:03;;;;;;;1.38;0.45;;;12.30;99.90;;;;;;5051896;28;20106;-62
2023/12/19 07:33:30;;;;;;;1.80;0.40;;;12.30;99.90;;;;;;5051781;28;20055;-62
2023/12/19 07:35:57;;;;;;;1.58;0.80;;;12.30;99.90;;;;;;5053311;28;20171;-62
2023/12/19 07:38:23;;;;;;;1.23;0.38;;;12.20;99.90;;;;;;5053197;28;20033;-62
2023/12/19 07:40:50;;;;;;;1.27;0.40;;;12.20;99.90;;;;;;5053562;28;20041;-62
2023/12/19 07:43:17;;;;;;;0.95;0.40;;;12.20;99.90;;;;;;5053551;28;20466;-62
2023/12/19 07:45:44;;;;;;;2.35;0.40;;;12.20;99.90;;;;;;5052756;28;20037;-62
2023/12/19 07:48:11;;;;;;;2.05;0.60;;;12.30;99.90;;;;;;5052829;28;20064;-62
2023/12/19 07:50:38;;;;;;;1.90;0.47;;;12.20;99.90;;;;;;5055987;28;20041;-62
2023/12/19 07:53:05;;;;;;;0.88;0.45;;;12.30;99.90;;;;;;5068788;28;20033;-62
2023/12/19 07:55:32;;;;;;;1.80;0.50;;;12.30;99.90;;;;;;5053686;28;20040;-62
2023/12/19 07:57:58;;;;;;;2.00;0.50;;;12.30;99.90;;;;;;5073133;28;20043;-62
2023/12/19 08:00:25;;;;;;;2.33;0.60;;;12.30;99.90;;;;;;5053799;28;20043;-62
2023/12/19 08:02:53;;;;;;;1.65;0.57;;;12.30;99.90;;;;;;5073407;28;20041;-62
2023/12/19 08:05:20;;;;;;;1.73;0.80;;;12.30;99.90;;;;;;5053667;28;20040;-62
2023/12/19 08:07:47;;;;;;;1.88;0.88;;;12.20;99.90;;;;;;5070890;28;20091;-62
2023/12/19 08:10:14;;;;;;;2.30;1.00;;;12.20;99.90;;;;;;5076384;28;20050;-62
2023/12/19 08:12:41;;;;;;;2.30;1.02;;;12.20;99.90;;;;;;5077610;28;20485;-62
2023/12/19 08:15:10;;;;;;;2.47;1.10;;;12.20;99.90;;;;;;5076079;28;20390;-62
2023/12/19 08:17:37;;;;;;;3.05;0.90;;;12.10;99.90;;;;;;5077137;28;20094;-63
2023/12/19 08:20:04;;;;;;;4.05;1.13;;;12.20;99.90;;;;;;5077128;28;20100;-63
2023/12/19 08:22:31;;;;;;;2.65;1.23;;;12.20;99.90;;;;;;5076579;28;20114;-63
2023/12/19 08:24:58;;;;;;;2.38;1.25;;;12.10;99.90;;;;;;5076803;28;20040;-63
2023/12/19 08:27:28;;;;;;;1.80;1.05;;;12.10;99.90;;;;;;5075382;28;20064;-62
2023/12/19 08:29:55;;;;;;;1.95;1.15;;;12.10;99.90;;;;;;5076645;28;20037;-63
2023/12/19 08:32:22;;;;;;;5.32;1.08;;;12.20;99.90;;;;;;5076222;28;20037;-62
2023/12/19 08:34:48;;;;;;;2.05;1.00;;;12.10;99.90;;;;;;5076461;28;20119;-63
2023/12/19 08:37:15;;;;;;;1.15;0.77;;;12.20;99.90;;;;;;5076209;28;20048;-62
2023/12/19 08:39:42;;;;;;;1.88;0.90;;;12.10;99.90;;;;;;5076344;28;20036;-62
2023/12/19 08:42:09;;;;;;;2.70;0.90;;;12.20;99.90;;;;;;5076783;28;20047;-62
2023/12/19 08:44:36;;;;;;;3.15;0.88;;;12.10;99.90;;;;;;5076392;28;20082;-62
2023/12/19 08:47:03;;;;;;;2.72;1.17;;;12.10;99.90;;;;;;5076541;28;20071;-63
2023/12/19 08:49:29;;;;;;;2.55;0.90;;;12.20;99.90;;;;;;5076003;28;20094;-63
2023/12/19 08:51:58;;;;;;;2.10;0.90;;;12.20;99.90;;;;;;5076170;28;20072;-63
2023/12/19 08:54:25;;;;;;;3.13;1.02;;;12.20;99.90;;;;;;5076220;28;20068;-63
2023/12/19 08:56:52;;;;;;;2.38;0.80;;;12.20;99.90;;;;;;5076244;28;20058;-63
2023/12/19 08:59:19;;;;;;;3.83;0.80;;;12.20;99.90;;;;;;5075791;28;20538;-63
2023/12/19 09:01:46;;;;;;;1.58;0.88;;;12.20;99.90;;;;;;5076279;28;20036;-62
2023/12/19 09:04:13;;;;;;;2.35;0.95;;;12.20;99.90;;;;;;5075924;28;20048;-62
2023/12/19 09:06:40;;;;;;;2.38;1.10;;;12.20;99.90;;;;;;5074824;28;20127;-63
2023/12/19 09:09:11;;;;;;;2.58;1.10;;;12.20;99.90;;;;;;5075641;28;20090;-62
2023/12/19 09:11:38;;;;;;;2.47;1.02;;;12.20;99.90;;;;;;5075371;28;20048;-62
2023/12/19 09:14:05;;;;;;;1.65;0.95;;;12.20;99.90;;;;;;5075513;28;20063;-62
2023/12/19 09:16:32;;;;;;;2.47;1.20;;;12.20;99.90;;;;;;5075953;28;20541;-63
2023/12/19 09:18:59;;;;;;;3.08;1.02;;;12.20;99.90;;;;;;5075279;28;20127;-62
2023/12/19 09:21:26;;;;;;;2.25;1.00;;;12.20;99.90;;;;;;5075360;28;20507;-63
2023/12/19 09:23:53;;;;;;;2.60;1.20;;;12.20;99.90;;;;;;5074018;28;20067;-63
2023/12/19 09:26:20;;;;;;;1.70;1.10;;;12.20;99.90;;;;;;5075638;28;20120;-63
2023/12/19 09:28:47;;;;;;;5.50;1.67;;;12.20;99.90;;;;;;5075222;28;20048;-63
2023/12/19 09:31:17;;;;;;;3.45;1.48;;;12.20;99.90;;;;;;5071649;28;20036;-63
2023/12/19 09:33:44;;;;;;;3.17;1.30;;;12.20;99.90;;;;;;5062418;28;20040;-62
2023/12/19 09:36:12;;;;;;;3.28;1.30;;;12.30;99.90;;;;;;5062993;28;20140;-61
2023/12/19 09:38:39;;;;;;;2.35;1.00;;;12.30;99.90;;;;;;5069249;28;20037;-62
2023/12/19 09:41:06;;;;;;;2.55;1.27;;;12.30;99.90;;;;;;5062703;28;20028;-63
2023/12/19 09:43:33;;;;;;;2.00;1.10;;;12.30;99.90;;;;;;5075218;28;20044;-63
2023/12/19 09:46:00;;;;;;;2.67;1.00;;;12.30;99.90;;;;;;5061023;28;20044;-63
2023/12/19 09:48:27;;;;;;;2.05;0.90;;;12.30;99.90;;;;;;5054604;28;20099;-64
2023/12/19 09:50:54;;;;;;;1.75;0.70;;;12.40;99.90;;;;;;5054789;28;20071;-63
2023/12/19 09:53:20;;;;;;;1.85;0.90;;;12.30;99.90;;;;;;5055200;28;20051;-63
2023/12/19 09:55:51;;;;;;;1.50;0.77;;;12.40;99.90;;;;;;5054678;28;20386;-63
2023/12/19 09:58:18;;;;;;;5.68;1.10;;;12.40;99.90;;;;;;5053896;28;20041;-63
2023/12/19 10:00:45;;;;;;;1.80;0.90;;;12.40;99.90;;;;;;5055067;28;20068;-63
2023/12/19 10:03:12;;;;;;;1.80;0.75;;;12.40;99.90;;;;;;5054879;28;20041;-63
2023/12/19 10:05:39;;;;;;;2.63;0.98;;;12.40;99.90;;;;;;5054659;28;20040;-63
2023/12/19 10:08:07;;;;;;;1.73;0.80;;;12.40;99.90;;;;;;5048555;28;20049;-63
2023/12/19 10:10:33;;;;;;;1.50;0.70;;;12.40;99.90;;;;;;5056746;28;20110;-62
2023/12/19 10:13:00;;;;;;;2.15;0.75;;;12.50;99.90;;;;;;5046398;28;20124;-63
2023/12/19 10:15:27;;;;;;;1.67;0.57;;;12.50;99.90;;;;;;5048615;28;20041;-63
2023/12/19 10:17:54;;;;;;;1.80;0.57;;;12.50;99.90;;;;;;5053269;28;20037;-63
2023/12/19 10:20:24;;;;;;;1.42;0.73;;;12.50;99.90;;;;;;5040431;28;20388;-63
2023/12/19 10:22:51;;;;;;;2.28;0.63;;;12.50;99.90;;;;;;5034002;28;20128;-61
2023/12/19 10:25:18;;;;;;;2.28;0.80;;;12.50;99.90;;;;;;5035437;28;20498;-60
2023/12/19 10:27:45;;;;;;;2.83;0.70;;;12.50;99.90;;;;;;5050555;28;20103;-61
2023/12/19 10:30:12;;;;;;;1.98;0.50;;;12.50;99.90;;;;;;5040879;28;20041;-61
2023/12/19 10:32:40;;;;;;;1.60;0.80;;;12.50;99.90;;;;;;5034652;28;20471;-61
2023/12/19 10:35:07;;;;;;;2.67;1.13;;;12.50;99.90;;;;;;5037892;28;20049;-61
2023/12/19 10:37:36;;;;;;;3.15;0.75;;;12.50;99.90;;;;;;5038880;28;20076;-61
2023/12/19 10:40:10;;;;;;;3.65;0.80;;;12.50;99.90;;;;;;5046645;28;20040;-62
2023/12/19 10:42:37;;;;;;;2.70;0.80;;;12.50;99.90;;;;;;5040119;28;20413;-62
2023/12/19 10:45:05;;;;;;;2.67;0.85;;;12.50;99.90;;;;;;5032987;28;20050;-62
2023/12/19 10:47:32;;;;;;;1.67;0.70;;;12.50;99.90;;;;;;5033771;28;20430;-62
2023/12/19 10:49:58;;;;;;;1.70;0.63;;;12.40;99.90;;;;;;5033467;28;20038;-62
2023/12/19 10:52:26;;;;;;;2.25;0.77;;;12.40;99.90;;;;;;5033586;28;20565;-63
2023/12/19 10:54:52;;;;;;;1.85;0.90;;;12.40;99.90;;;;;;5033700;28;20497;-63
2023/12/19 10:57:19;;;;;;;1.13;0.50;;;12.30;99.90;;;;;;5052917;28;20383;-62
2023/12/19 10:59:46;;;;;;;2.60;0.35;;;11.90;99.90;;;;;;5053277;28;20395;-62
2023/12/19 11:02:13;;;;;;;1.23;0.40;;;11.60;99.90;;;;;;5052929;28;20052;-63
2023/12/19 11:04:40;;;;;;;1.60;0.40;;;11.10;99.90;;;;;;5052752;28;20037;-62
2023/12/19 11:07:07;;;;;;;1.35;0.40;;;10.90;99.90;;;;;;5052440;28;20064;-62
2023/12/19 11:09:34;;;;;;;1.27;0.50;;;10.70;99.90;;;;;;5040475;28;20055;-62
2023/12/19 11:12:01;;;;;;;1.35;0.40;;;10.60;99.90;;;;;;5034772;28;20049;-63
2023/12/19 11:14:27;;;;;;;2.13;0.60;;;10.50;99.90;;;;;;5052017;28;20045;-63
2023/12/19 11:16:56;;;;;;;1.40;0.70;;;10.40;99.90;;;;;;5051539;28;20043;-63
2023/12/19 11:19:23;;;;;;;1.48;0.50;;;10.40;99.90;;;;;;5051885;28;20114;-62
2023/12/19 11:21:50;;;;;;;1.77;0.63;;;10.30;99.90;;;;;;5034063;28;20064;-63
2023/12/19 11:24:18;;;;;;;1.70;0.45;;;10.20;99.90;;;;;;5040828;28;20164;-62
2023/12/19 11:26:45;;;;;;;1.25;0.60;;;10.10;99.90;;;;;;5052735;28;20560;-63
2023/12/19 11:29:11;;;;;;;3.22;0.80;;;10.20;99.90;;;;;;5051479;28;20041;-63
2023/12/19 11:31:38;;;;;;;1.40;0.60;;;10.20;99.90;;;;;;5051791;28;20375;-64
2023/12/19 11:34:05;;;;;;;2.40;0.90;;;10.20;99.90;;;;;;5035007;28;20499;-64
2023/12/19 11:36:32;;;;;;;2.25;0.80;;;10.20;99.90;;;;;;5037126;28;20049;-63
2023/12/19 11:38:59;;;;;;;4.07;1.00;;;10.20;99.90;;;;;;5032017;28;20044;-63
2023/12/19 11:41:26;;;;;;;2.92;0.85;;;10.20;99.90;;;;;;5044794;28;20056;-63
2023/12/19 11:43:53;;;;;;;4.53;1.30;;;10.20;99.90;;;;;;5043790;28;20052;-63
2023/12/19 11:46:20;;;;;;;2.00;1.27;;;10.20;99.90;;;;;;5048630;28;20069;-64
2023/12/19 11:48:47;;;;;;;4.00;1.60;;;10.30;99.90;;;;;;5049056;28;20468;-64
2023/12/19 11:51:14;;;;;;;5.47;1.73;;;10.30;99.90;;;;;;5053266;28;20128;-64
2023/12/19 11:53:40;;;;;;;2.53;1.73;;;10.30;99.90;;;;;;5040801;28;20069;-64
2023/12/19 11:56:10;;;;;;;3.90;2.10;;;10.30;99.90;;;;;;5054275;28;20040;-64
2023/12/19 11:58:37;;;;;;;4.80;2.00;;;10.30;99.90;;;;;;5058234;28;20512;-64
2023/12/19 12:01:04;;;;;;;3.13;2.03;;;10.30;99.90;;;;;;5048471;28;20498;-64
2023/12/19 12:03:31;;;;;;;3.05;1.85;;;10.30;99.90;;;;;;5055668;28;20038;-64
2023/12/19 12:05:58;;;;;;;3.08;1.85;;;10.30;99.90;;;;;;5056262;28;20539;-63
2023/12/19 12:08:25;;;;;;;4.45;1.90;;;10.30;99.90;;;;;;5048400;28;20126;-64
2023/12/19 12:10:52;;;;;;;3.75;2.20;;;10.30;99.90;;;;;;5058202;28;20463;-63
2023/12/19 12:13:20;;;;;;;3.15;1.95;;;10.40;99.90;;;;;;5055952;28;20053;-63
2023/12/19 12:15:48;;;;;;;2.50;1.70;;;10.40;99.90;;;;;;5049038;28;20041;-63
2023/12/19 12:18:15;;;;;;;5.68;2.42;;;10.40;99.90;;;;;;5058347;28;20040;-64
2023/12/19 12:20:42;;;;;;;4.68;2.00;;;10.30;99.90;;;;;;5057447;28;20045;-63
2023/12/19 12:23:09;;;;;;;2.80;1.70;;;10.30;99.90;;;;;;5045370;28;20139;-64
2023/12/19 12:25:36;;;;;;;2.10;1.58;;;10.20;99.90;;;;;;5059002;28;20041;-63
2023/12/19 12:28:03;;;;;;;4.25;1.45;;;10.30;99.90;;;;;;5058902;28;20076;-63
2023/12/19 12:30:32;;;;;;;2.72;1.60;;;10.30;99.90;;;;;;5058069;28;20055;-62
2023/12/19 12:32:59;;;;;;;2.78;1.48;;;10.30;99.90;;;;;;5058539;28;20049;-63
2023/12/19 12:35:31;;;;;;;2.72;1.30;;;10.30;99.90;;;;;;5057687;28;20069;-62
2023/12/19 12:37:58;;;;;;;2.03;1.10;;;10.20;99.90;;;;;;5058386;28;20494;-63
2023/12/19 12:40:26;;;;;;;1.52;0.90;;;10.20;99.90;;;;;;5057930;28;20053;-64